地図

経路データ

SID SEASON NUMBER BASIN SUBBASIN NAME ISO_TIME NATURE LAT LON WMO_WIND WMO_PRES WMO_AGENCY TRACK_TYPE DIST2LAND LANDFALL IFLAG USA_AGENCY USA_ATCF_ID USA_LAT USA_LON USA_RECORD USA_STATUS USA_WIND USA_PRES USA_SSHS USA_R34_NE USA_R34_SE USA_R34_SW USA_R34_NW USA_R50_NE USA_R50_SE USA_R50_SW USA_R50_NW USA_R64_NE USA_R64_SE USA_R64_SW USA_R64_NW USA_POCI USA_ROCI USA_RMW USA_EYE TOKYO_LAT TOKYO_LON TOKYO_GRADE TOKYO_WIND TOKYO_PRES TOKYO_R50_DIR TOKYO_R50_LONG TOKYO_R50_SHORT TOKYO_R30_DIR TOKYO_R30_LONG TOKYO_R30_SHORT TOKYO_LAND CMA_LAT CMA_LON CMA_CAT CMA_WIND CMA_PRES HKO_LAT HKO_LON HKO_CAT HKO_WIND HKO_PRES NEWDELHI_LAT NEWDELHI_LON NEWDELHI_GRADE NEWDELHI_WIND NEWDELHI_PRES NEWDELHI_CI NEWDELHI_DP NEWDELHI_POCI REUNION_LAT REUNION_LON REUNION_TYPE REUNION_WIND REUNION_PRES REUNION_TNUM REUNION_CI REUNION_RMW REUNION_R34_NE REUNION_R34_SE REUNION_R34_SW REUNION_R34_NW REUNION_R50_NE REUNION_R50_SE REUNION_R50_SW REUNION_R50_NW REUNION_R64_NE REUNION_R64_SE REUNION_R64_SW REUNION_R64_NW BOM_LAT BOM_LON BOM_TYPE BOM_WIND BOM_PRES BOM_TNUM BOM_CI BOM_RMW BOM_R34_NE BOM_R34_SE BOM_R34_SW BOM_R34_NW BOM_R50_NE BOM_R50_SE BOM_R50_SW BOM_R50_NW BOM_R64_NE BOM_R64_SE BOM_R64_SW BOM_R64_NW BOM_ROCI BOM_POCI BOM_EYE BOM_POS_METHOD BOM_PRES_METHOD NADI_LAT NADI_LON NADI_CAT NADI_WIND NADI_PRES WELLINGTON_LAT WELLINGTON_LON WELLINGTON_WIND WELLINGTON_PRES DS824_LAT DS824_LON DS824_STAGE DS824_WIND DS824_PRES TD9636_LAT TD9636_LON TD9636_STAGE TD9636_WIND TD9636_PRES TD9635_LAT TD9635_LON TD9635_WIND TD9635_PRES TD9635_ROCI NEUMANN_LAT NEUMANN_LON NEUMANN_CLASS NEUMANN_WIND NEUMANN_PRES MLC_LAT MLC_LON MLC_CLASS MLC_WIND MLC_PRES USA_GUST BOM_GUST BOM_GUST_PER REUNION_GUST REUNION_GUST_PER USA_SEAHGT USA_SEARAD_NE USA_SEARAD_SE USA_SEARAD_SW USA_SEARAD_NW STORM_SPEED STORM_DIR
1975229N20089 1975 73 NI BB NOT_NAMED 1975-08-17 00:00:00 TS 20.0000 88.6000 main 179 160 O________OO___ jtwc_io IO111975 20.0000 88.6000 -1 20.0000 88.6000 TC 25 20.0000 88.6000 1 4 297
1975229N20089 1975 73 NI BB NOT_NAMED 1975-08-17 03:00:00 TS 20.0968 88.3921 main 160 136 P________PP___ IO111975 20.0826 88.3825 -1 20.0826 88.3825 TC 25 20.1252 88.4114 1 4 301
1975229N20089 1975 73 NI BB NOT_NAMED 1975-08-17 06:00:00 TS 20.2201 88.2127 main 136 119 O________OP___ jtwc_io IO111975 20.2000 88.2000 -1 20.2000 88.2000 TC 25 20.2603 88.2380 1 4 315
1975229N20089 1975 73 NI BB NOT_NAMED 1975-08-17 09:00:00 TS 20.3900 88.0836 main 119 104 P________PP___ IO111975 20.3775 88.0775 -1 20.3775 88.0775 TC 25 20.4152 88.0957 1 4 333
1975229N20089 1975 73 NI BB NOT_NAMED 1975-08-17 12:00:00 TS 20.6000 88.0000 main 104 91 O________OO___ jtwc_io IO111975 20.6000 88.0000 -1 20.6000 88.0000 TC 25 20.6000 88.0000 1 5 343
1975229N20089 1975 73 NI BB NOT_NAMED 1975-08-17 15:00:00 TS 20.8354 87.9430 main 93 63 P________PP___ IO111975 20.8425 87.9350 -1 20.8425 87.9350 TC 25 20.8211 87.9589 1 5 351
1975229N20089 1975 73 NI BB NOT_NAMED 1975-08-17 18:00:00 TS 21.0899 87.9164 main 63 45 O________OP___ jtwc_io IO111975 21.1000 87.9000 -1 21.1000 87.9000 TC 25 21.0698 87.9493 1 5 357
1975229N20089 1975 73 NI BB NOT_NAMED 1975-08-17 21:00:00 TS 21.3445 87.9183 main 45 15 P________PP___ IO111975 21.3500 87.9074 -1 21.3500 87.9074 TC 25 21.3336 87.9401 1 5 0
1975229N20089 1975 73 NI BB NOT_NAMED 1975-08-18 00:00:00 TS 21.6000 87.9000 main 15 0 O________OO___ jtwc_io IO111975 21.6000 87.9000 -1 21.6000 87.9000 TC 25 21.6000 87.9000 1 5 350
1975229N20089 1975 73 NI BB NOT_NAMED 1975-08-18 03:00:00 TS 21.8526 87.8234 main 0 0 P________PP___ IO111975 21.8500 87.8300 -1 21.8500 87.8300 TC 25 21.8580 87.8102 1 5 339
1975229N20089 1975 73 NI BB NOT_NAMED 1975-08-18 06:00:00 TS 22.1049 87.6941 main 0 0 O________OP___ jtwc_io IO111975 22.1000 87.7000 -1 22.1000 87.7000 TC 25 22.1147 87.6824 1 6 331
1975229N20089 1975 73 NI BB NOT_NAMED 1975-08-18 09:00:00 TS 22.3597 87.5244 main 0 0 P________PP___ IO111975 22.3575 87.5300 -1 22.3575 87.5300 TC 25 22.3641 87.5133 1 6 324
1975229N20089 1975 73 NI BB NOT_NAMED 1975-08-18 12:00:00 TS 22.6000 87.3000 main 0 0 O________OO___ jtwc_io IO111975 22.6000 87.3000 -1 22.6000 87.3000 TC 25 22.6000 87.3000 1 7 314
1975229N20089 1975 73 NI BB NOT_NAMED 1975-08-18 15:00:00 TS 22.8167 87.0190 main 0 0 P________PP___ IO111975 22.8075 87.0149 -1 22.8075 87.0149 TC 25 22.8350 87.0273 1 7 307
1975229N20089 1975 73 NI BB NOT_NAMED 1975-08-18 18:00:00 TS 23.0177 86.7052 main 0 0 O________OP___ jtwc_io IO111975 23.0000 86.7000 -1 23.0000 86.7000 TC 25 23.0530 86.7156 1 7 305
1975229N20089 1975 73 NI BB NOT_NAMED 1975-08-18 21:00:00 TS 23.2248 86.3887 main 0 0 P________PP___ IO111975 23.2150 86.3851 -1 23.2150 86.3851 TC 25 23.2444 86.3960 1 7 305
1975229N20089 1975 73 NI BB NOT_NAMED 1975-08-19 00:00:00 TS 23.4000 86.1000 main 0 0 O________OO___ jtwc_io IO111975 23.4000 86.1000 -1 23.4000 86.1000 TC 25 23.4000 86.1000 1 5 302
1975229N20089 1975 73 NI BB NOT_NAMED 1975-08-19 03:00:00 TS 23.5117 85.8828 main 0 0 P________PP___ IO111975 23.5224 85.8849 -1 23.5224 85.8849 TC 25 23.4902 85.8786 1 4 296
1975229N20089 1975 73 NI BB NOT_NAMED 1975-08-19 06:00:00 TS 23.5832 85.6946 main 0 0 O________OP___ jtwc_io IO111975 23.6000 85.7000 -1 23.6000 85.7000 TC 25 23.5495 85.6839 1 4 288
1975229N20089 1975 73 NI BB NOT_NAMED 1975-08-19 09:00:00 TS 23.6263 85.5040 main 0 0 P________PP___ IO111975 23.6349 85.5073 -1 23.6349 85.5073 TC 25 23.6090 85.4974 1 4 288
1975229N20089 1975 73 NI BB NOT_NAMED 1975-08-19 12:00:00 TS 23.7000 85.3000 main 0 0 O________OO___ jtwc_io IO111975 23.7000 85.3000 -1 23.7000 85.3000 TC 25 23.7000 85.3000 1 5 302
1975229N20089 1975 73 NI BB NOT_NAMED 1975-08-19 15:00:00 TS 23.8771 85.0586 main 0 0 P________PP___ IO111975 23.8775 85.0576 -1 23.8775 85.0576 TC 25 23.8763 85.0607 1 6 311
1975229N20089 1975 73 NI BB NOT_NAMED 1975-08-19 18:00:00 TS 24.0950 84.8027 main 0 0 O________OP___ jtwc_io IO111975 24.1000 84.8000 -1 24.1000 84.8000 TC 25 24.0851 84.8080 1 6 313
1975229N20089 1975 73 NI BB NOT_NAMED 1975-08-19 21:00:00 TS 24.3054 84.5504 main 0 0 P________PP___ IO111975 24.3075 84.5500 -1 24.3075 84.5500 TC 25 24.3013 84.5513 1 6 311
1975229N20089 1975 73 NI BB NOT_NAMED 1975-08-20 00:00:00 TS 24.5000 84.3000 main 0 0 O________OO___ jtwc_io IO111975 24.5000 84.3000 -1 24.5000 84.3000 TC 25 24.5000 84.3000 1 6 308
1975229N20089 1975 73 NI BB NOT_NAMED 1975-08-20 03:00:00 TS 24.6643 84.0428 main 0 0 P________PP___ IO111975 24.6650 84.0425 -1 24.6650 84.0425 TC 25 24.6629 84.0434 1 5 303
1975229N20089 1975 73 NI BB NOT_NAMED 1975-08-20 06:00:00 TS 24.8009 83.7992 main 0 0 O________OP___ jtwc_io IO111975 24.8000 83.8000 -1 24.8000 83.8000 TC 25 24.8026 83.7975 1 5 301
1975229N20089 1975 73 NI BB NOT_NAMED 1975-08-20 09:00:00 TS 24.9203 83.5776 main 0 0 P________PP___ IO111975 24.9225 83.5775 -1 24.9225 83.5775 TC 25 24.9160 83.5778 1 4 299
1975229N20089 1975 73 NI BB NOT_NAMED 1975-08-20 12:00:00 TS 25.0000 83.4000 main 0 0 O________OO___ jtwc_io IO111975 25.0000 83.4000 -1 25.0000 83.4000 TC 25 25.0000 83.4000 1 3 291
1975229N20089 1975 73 NI BB NOT_NAMED 1975-08-20 15:00:00 TS 25.0228 83.2829 main 0 0 P________PP___ IO111975 25.0075 83.2774 -1 25.0075 83.2774 TC 25 25.0535 83.2938 1 2 279
1975229N20089 1975 73 NI BB NOT_NAMED 1975-08-20 18:00:00 TS 25.0266 83.2091 main 0 0 O________OP___ jtwc_io IO111975 25.0000 83.2000 -1 25.0000 83.2000 TC 25 25.0797 83.2271 1 1 290
1975229N20089 1975 73 NI BB NOT_NAMED 1975-08-20 21:00:00 TS 25.0637 83.1623 main 0 0 P________PP___ IO111975 25.0500 83.1575 -1 25.0500 83.1575 TC 25 25.0910 83.1720 1 1 308
1975229N20089 1975 73 NI BB NOT_NAMED 1975-08-21 00:00:00 TS 25.1000 83.1000 main 0 0 O________OO___ jtwc_io IO111975 25.1000 83.1000 -1 25.1000 83.1000 TC 25 25.1000 83.1000 1 2 284
1975229N20089 1975 73 NI BB NOT_NAMED 1975-08-21 03:00:00 TS 25.1098 82.9591 main 0 0 P________PP___ IO111975 25.1000 82.9650 -1 25.1000 82.9650 TC 25 25.1292 82.9472 1 3 274
1975229N20089 1975 73 NI BB NOT_NAMED 1975-08-21 06:00:00 TS 25.1192 82.7925 main 0 0 O________OP___ jtwc_io IO111975 25.1000 82.8000 -1 25.1000 82.8000 TC 25 25.1577 82.7776 1 3 280
1975229N20089 1975 73 NI BB NOT_NAMED 1975-08-21 09:00:00 TS 25.1608 82.6247 main 0 0 P________PP___ IO111975 25.1500 82.6276 -1 25.1500 82.6276 TC 25 25.1823 82.6191 1 3 287
1975229N20089 1975 73 NI BB NOT_NAMED 1975-08-21 12:00:00 TS 25.2000 82.5000 main 0 0 O________OO___ jtwc_io IO111975 25.2000 82.5000 -1 25.2000 82.5000 TC 25 25.2000 82.5000 1 1 287
1975229N20089 1975 73 NI BB NOT_NAMED 1975-08-21 15:00:00 TS 25.2019 82.4773 main 0 0 P________PP___ IO111975 25.2075 82.4775 -1 25.2075 82.4775 TC 25 25.1908 82.4771 1 0 0
1975229N20089 1975 73 NI BB NOT_NAMED 1975-08-21 18:00:00 TS 25.1924 82.4974 main 0 0 O________OP___ jtwc_io IO111975 25.2000 82.5000 -1 25.2000 82.5000 TC 25 25.1773 82.4923 1 0 121
1975229N20089 1975 73 NI BB NOT_NAMED 1975-08-21 21:00:00 TS 25.1817 82.5138 main 0 0 P________PP___ IO111975 25.1850 82.5150 -1 25.1850 82.5150 TC 25 25.1752 82.5114 1 0 0
1975229N20089 1975 73 NI BB NOT_NAMED 1975-08-22 00:00:00 TS 25.2000 82.5000 main 0 0 O________OO___ jtwc_io IO111975 25.2000 82.5000 -1 25.2000 82.5000 TC 25 25.2000 82.5000 1 1 318
1975229N20089 1975 73 NI BB NOT_NAMED 1975-08-22 03:00:00 TS 25.2831 82.4174 main 0 0 P________PP___ IO111975 25.2850 82.4225 -1 25.2850 82.4225 TC 25 25.2795 82.4071 1 3 317
1975229N20089 1975 73 NI BB NOT_NAMED 1975-08-22 06:00:00 TS 25.3950 82.2934 main 0 0 O________OP___ jtwc_io IO111975 25.4000 82.3000 -1 25.4000 82.3000 TC 25 25.3851 82.2803 1 3 312
1975229N20089 1975 73 NI BB NOT_NAMED 1975-08-22 09:00:00 TS 25.5044 82.1461 main 0 0 P________PP___ IO111975 25.5075 82.1500 -1 25.5075 82.1500 TC 25 25.4982 82.1383 1 3 308
1975229N20089 1975 73 NI BB NOT_NAMED 1975-08-22 12:00:00 TS 25.6000 82.0000 main 0 0 O________OO___ jtwc_io IO111975 25.6000 82.0000 -1 25.6000 82.0000 TC 25 25.6000 82.0000 1 3 302
1975229N20089 1975 73 NI BB NOT_NAMED 1975-08-22 15:00:00 TS 25.6517 81.8858 main 0 0 P________PP___ IO111975 25.6575 81.8925 -1 25.6575 81.8925 TC 25 25.6400 81.8724 1 2 295
1975229N20089 1975 73 NI BB NOT_NAMED 1975-08-22 18:00:00 TS 25.6900 81.7850 main 0 0 O________OP___ jtwc_io IO111975 25.7000 81.8000 -1 25.7000 81.8000 TC 25 25.6700 81.7549 1 2 291
1975229N20089 1975 73 NI BB NOT_NAMED 1975-08-22 21:00:00 TS 25.7233 81.6767 main 0 0 P________PP___ IO111975 25.7275 81.6850 -1 25.7275 81.6850 TC 25 25.7150 81.6600 1 2 303
1975229N20089 1975 73 NI BB NOT_NAMED 1975-08-23 00:00:00 TS 25.8000 81.6000 main 0 0 O________OO___ jtwc_io IO111975 25.8000 81.6000 -1 25.8000 81.6000 TC 25 25.8000 81.6000 1 3 340
1975229N20089 1975 73 NI BB NOT_NAMED 1975-08-23 03:00:00 TS 25.9787 81.5799 main 0 0 P________PP___ IO111975 25.9775 81.5775 -1 25.9775 81.5775 TC 25 25.9812 81.5849 1 4 0
1975229N20089 1975 73 NI BB NOT_NAMED 1975-08-23 06:00:00 TS 26.2000 81.6016 main 0 0 O________OP___ jtwc_io IO111975 26.2000 81.6000 -1 26.2000 81.6000 TC 25 26.2000 81.6048 1 4 7
1975229N20089 1975 73 NI BB NOT_NAMED 1975-08-23 09:00:00 TS 26.4212 81.6441 main 0 0 P________PP___ IO111975 26.4225 81.6424 -1 26.4225 81.6424 TC 25 26.4187 81.6473 1 4 12
1975229N20089 1975 73 NI BB NOT_NAMED 1975-08-23 12:00:00 TS 26.6000 81.7000 main 0 0 O________OO___ jtwc_io IO111975 26.6000 81.7000 -1 26.6000 81.7000 TC 25 26.6000 81.7000 1 3 19
1975229N20089 1975 73 NI BB NOT_NAMED 1975-08-23 15:00:00 TS 26.6753 81.7436 main 0 0 P________PP___ IO111975 26.6725 81.7500 -1 26.6725 81.7500 TC 25 26.6809 81.7308 1 1 35
1975229N20089 1975 73 NI BB NOT_NAMED 1975-08-23 18:00:00 TS 26.7075 81.7901 main 0 0 O________OP___ jtwc_io IO111975 26.7000 81.8000 -1 26.7000 81.8000 TC 25 26.7224 81.7702 1 1 48
1975229N20089 1975 73 NI BB NOT_NAMED 1975-08-23 21:00:00 TS 26.7459 81.8365 main 0 0 P________PP___ IO111975 26.7425 81.8425 -1 26.7425 81.8425 TC 25 26.7528 81.8246 1 1 45
1975229N20089 1975 73 NI BB NOT_NAMED 1975-08-24 00:00:00 TS 26.8000 81.9000 main 0 0 O________OO___ jtwc_io IO111975 26.8000 81.9000 -1 26.8000 81.9000 TC 25 26.8000 81.9000 1 2 44
1975229N20089 1975 73 NI BB NOT_NAMED 1975-08-24 03:00:00 TS 26.8852 81.9902 main 0 0 P________PP___ IO111975 26.8850 81.9850 -1 26.8850 81.9850 TC 25 26.8857 82.0006 1 3 43
1975229N20089 1975 73 NI BB NOT_NAMED 1975-08-24 06:00:00 TS 27.0017 82.1073 main 0 0 O________OP___ jtwc_io IO111975 27.0000 82.1000 -1 27.0000 82.1000 TC 25 27.0052 82.1220 1 3 42
1975229N20089 1975 73 NI BB NOT_NAMED 1975-08-24 09:00:00 TS 27.1440 82.2474 main 0 0 P________PP___ IO111975 27.1425 82.2424 -1 27.1425 82.2424 TC 25 27.1470 82.2574 1 4 41
1975229N20089 1975 73 NI BB NOT_NAMED 1975-08-24 12:00:00 TS 27.3000 82.4000 main 0 O________OO___ jtwc_io IO111975 27.3000 82.4000 -1 27.3000 82.4000 TC 25 27.3000 82.4000 6 4 42

IBTrACS Databaseについて

本データベースは、米国NOAAが公開する1842年以降の世界の熱帯低気圧のベストトラックデータアーカイブInternational Best Track Archive for Climate Stewardship (IBTrACS)を、ウェブで閲覧しやすい形式に変換したものです。

最終更新日:2021-11-26